Time;durP1;ratioP1;P1;durP2;ratioP2;P2;SDS_P1;SDS_P2;PMS_P1;PMS_P2;Temp;Humidity;BMP_temperature;BMP_pressure;BME280_temperature;BME280_humidity;BME280_pressure;Samples;Min_cycle;Max_cycle;Signal;HPM_P1;HPM_P2
2023/03/08 00:01:57;;;;;;;4.03;1.90;;;10.30;99.90;;;;;;5000056;28;20200;-73
2023/03/08 00:04:23;;;;;;;4.63;2.10;;;10.30;99.90;;;;;;5019269;28;20268;-73
2023/03/08 00:06:51;;;;;;;7.30;2.50;;;10.30;99.90;;;;;;4998185;28;20197;-73
2023/03/08 00:09:17;;;;;;;5.17;2.40;;;10.30;99.90;;;;;;4999004;28;20193;-73
2023/03/08 00:11:45;;;;;;;3.67;2.00;;;10.30;99.90;;;;;;5019235;28;20242;-73
2023/03/08 00:14:11;;;;;;;4.70;1.97;;;10.30;99.90;;;;;;5001522;28;20192;-73
2023/03/08 00:16:37;;;;;;;4.47;2.23;;;10.30;99.90;;;;;;5019973;28;20196;-74
2023/03/08 00:19:04;;;;;;;5.10;1.80;;;10.30;99.90;;;;;;5019194;28;20228;-73
2023/03/08 00:21:30;;;;;;;5.17;2.17;;;10.30;99.90;;;;;;5018995;28;20563;-73
2023/03/08 00:23:56;;;;;;;7.90;2.60;;;10.30;99.90;;;;;;4986088;28;20199;-73
2023/03/08 00:26:23;;;;;;;6.63;2.20;;;10.30;99.90;;;;;;5017297;28;20199;-73
2023/03/08 00:28:49;;;;;;;2.60;1.80;;;10.30;99.90;;;;;;5014969;28;20307;-73
2023/03/08 00:31:15;;;;;;;5.33;2.00;;;10.30;99.90;;;;;;4999466;28;20832;-73
2023/03/08 00:33:42;;;;;;;4.40;2.33;;;10.40;99.90;;;;;;5001351;28;20266;-73
2023/03/08 00:36:17;;;;;;;6.00;2.13;;;10.40;99.90;;;;;;5020462;28;20603;-73
2023/03/08 00:38:45;;;;;;;6.80;2.03;;;10.40;99.90;;;;;;5002369;28;20196;-73
2023/03/08 00:41:11;;;;;;;4.40;2.00;;;10.30;99.90;;;;;;5001055;28;20200;-73
2023/03/08 00:43:38;;;;;;;5.57;2.00;;;10.40;99.90;;;;;;4984517;28;20887;-73
2023/03/08 00:46:05;;;;;;;5.17;2.00;;;10.40;99.90;;;;;;5018172;28;20207;-73
2023/03/08 00:48:31;;;;;;;6.47;2.03;;;10.40;99.90;;;;;;5013813;28;20218;-73
2023/03/08 00:50:57;;;;;;;4.53;1.90;;;10.40;99.90;;;;;;4995972;28;20269;-73
2023/03/08 00:53:24;;;;;;;4.53;2.07;;;10.30;99.90;;;;;;4999665;28;20199;-73
2023/03/08 00:55:56;;;;;;;6.57;2.30;;;10.30;99.90;;;;;;5001145;28;20278;-73
2023/03/08 00:58:25;;;;;;;5.77;1.87;;;10.30;99.90;;;;;;5013903;28;20192;-73
2023/03/08 01:00:52;;;;;;;6.37;2.20;;;10.30;99.90;;;;;;5014800;28;20208;-70
2023/03/08 01:03:20;;;;;;;3.23;1.80;;;10.30;99.90;;;;;;5016155;28;20192;-69
2023/03/08 01:05:53;;;;;;;4.80;2.47;;;10.30;99.90;;;;;;4999521;28;20493;-69
2023/03/08 01:08:21;;;;;;;3.90;2.10;;;10.30;99.90;;;;;;5012977;28;20226;-70
2023/03/08 01:10:51;;;;;;;5.37;2.47;;;10.30;99.90;;;;;;5017627;28;20220;-69
2023/03/08 01:13:18;;;;;;;6.23;2.20;;;10.30;99.90;;;;;;5018091;28;20863;-70
2023/03/08 01:15:44;;;;;;;6.03;2.20;;;10.30;99.90;;;;;;5016689;28;20185;-69
2023/03/08 01:18:12;;;;;;;4.30;2.00;;;10.30;99.90;;;;;;4982035;28;20263;-70
2023/03/08 01:20:38;;;;;;;6.60;1.80;;;10.30;99.90;;;;;;5019474;28;20199;-70
2023/03/08 01:23:04;;;;;;;3.93;1.93;;;10.30;99.90;;;;;;5016816;28;20580;-69
2023/03/08 01:25:31;;;;;;;3.43;2.10;;;10.30;99.90;;;;;;5016895;28;21574;-69
2023/03/08 01:27:57;;;;;;;7.17;2.03;;;10.30;99.90;;;;;;5017307;28;20571;-70
2023/03/08 01:30:23;;;;;;;3.87;2.10;;;10.30;99.90;;;;;;5016520;28;20188;-69
2023/03/08 01:32:49;;;;;;;6.53;2.20;;;10.40;99.90;;;;;;5019263;28;20188;-70
2023/03/08 01:35:16;;;;;;;4.33;2.10;;;10.40;99.90;;;;;;5014295;28;20183;-69
2023/03/08 01:37:42;;;;;;;4.03;1.70;;;10.40;99.90;;;;;;4999097;28;20227;-69
2023/03/08 01:40:15;;;;;;;6.73;1.90;;;10.40;99.90;;;;;;4999239;28;20456;-69
2023/03/08 01:42:42;;;;;;;4.07;2.10;;;10.40;99.90;;;;;;5017539;28;20598;-69
2023/03/08 01:46:09;;;;;;;4.73;1.80;;;10.40;99.90;;;;;;5017285;28;20195;-69
2023/03/08 01:48:59;;;;;;;5.67;2.00;;;10.30;99.90;;;;;;5015072;28;20208;-71
2023/03/08 01:51:50;;;;;;;7.40;2.20;;;10.30;99.90;;;;;;5017177;28;20567;-70
2023/03/08 01:54:34;;;;;;;5.20;2.60;;;10.30;99.90;;;;;;5014560;28;20278;-70
2023/03/08 01:57:33;;;;;;;6.47;2.00;;;10.30;99.90;;;;;;5000242;28;20202;-69
2023/03/08 02:00:25;;;;;;;4.07;2.23;;;10.20;99.90;;;;;;5005769;28;20223;-69
2023/03/08 02:03:07;;;;;;;5.87;2.03;;;10.20;99.90;;;;;;5017824;28;20195;-70
2023/03/08 02:05:41;;;;;;;7.10;2.10;;;10.20;99.90;;;;;;4999264;28;20242;-69
2023/03/08 02:08:07;;;;;;;6.03;2.30;;;10.20;99.90;;;;;;5013074;28;20299;-70
2023/03/08 02:10:36;;;;;;;7.17;2.30;;;10.20;99.90;;;;;;5017349;28;20855;-70
2023/03/08 02:13:06;;;;;;;3.70;1.90;;;10.20;99.90;;;;;;5015340;28;20223;-70
2023/03/08 02:15:32;;;;;;;5.63;1.97;;;10.20;99.90;;;;;;5018087;28;20204;-70
2023/03/08 02:17:59;;;;;;;6.10;2.20;;;10.20;99.90;;;;;;5000117;28;20184;-69
2023/03/08 02:20:36;;;;;;;5.17;1.90;;;10.20;99.90;;;;;;4979111;28;20222;-69
2023/03/08 02:23:12;;;;;;;4.70;2.23;;;10.20;99.90;;;;;;5019519;28;20474;-69
2023/03/08 02:25:40;;;;;;;5.90;2.30;;;10.10;99.90;;;;;;5022255;28;20196;-70
2023/03/08 02:28:07;;;;;;;5.13;1.90;;;10.10;99.90;;;;;;5019367;28;20291;-69
2023/03/08 02:30:37;;;;;;;5.17;1.90;;;10.10;99.90;;;;;;5018845;28;20196;-69
2023/03/08 02:33:03;;;;;;;6.37;2.00;;;10.00;99.90;;;;;;5021793;28;20203;-70
2023/03/08 02:35:30;;;;;;;4.13;2.40;;;10.00;99.90;;;;;;5004082;28;20184;-71
2023/03/08 02:37:57;;;;;;;5.37;2.10;;;10.00;99.90;;;;;;4997997;28;20192;-69
2023/03/08 02:40:24;;;;;;;4.43;2.20;;;9.90;99.90;;;;;;5020658;28;20196;-69
2023/03/08 02:42:50;;;;;;;7.33;2.47;;;9.90;99.90;;;;;;5021815;28;20199;-69
2023/03/08 02:45:16;;;;;;;4.70;2.17;;;9.90;99.90;;;;;;5019813;28;20231;-73
2023/03/08 02:47:42;;;;;;;5.23;2.00;;;9.90;99.90;;;;;;5019108;28;20216;-73
2023/03/08 02:50:09;;;;;;;6.23;2.10;;;9.80;99.90;;;;;;5018087;28;20279;-73
2023/03/08 02:52:36;;;;;;;6.07;2.67;;;9.80;99.90;;;;;;5002067;28;21969;-73
2023/03/08 02:55:02;;;;;;;4.43;2.20;;;9.80;99.90;;;;;;5019936;28;20192;-73
2023/03/08 02:57:29;;;;;;;5.00;2.00;;;9.80;99.90;;;;;;5020329;28;20224;-73
2023/03/08 02:59:55;;;;;;;5.77;2.07;;;9.80;99.90;;;;;;5002590;28;20567;-74
2023/03/08 03:02:21;;;;;;;5.30;2.33;;;9.80;99.90;;;;;;5017228;28;20719;-73
2023/03/08 03:04:47;;;;;;;4.70;2.23;;;9.80;99.90;;;;;;5003334;28;20292;-73
2023/03/08 03:07:13;;;;;;;5.63;2.00;;;9.80;99.90;;;;;;5017802;28;20224;-73
2023/03/08 03:09:40;;;;;;;6.83;2.13;;;9.80;99.90;;;;;;5021864;28;20192;-74
2023/03/08 03:12:06;;;;;;;8.10;2.40;;;9.70;99.90;;;;;;4987344;28;20188;-73
2023/03/08 03:14:32;;;;;;;4.67;2.30;;;9.70;99.90;;;;;;5001223;28;20199;-73
2023/03/08 03:16:59;;;;;;;6.17;2.10;;;9.70;99.90;;;;;;5021028;28;20868;-73
2023/03/08 03:19:25;;;;;;;7.50;2.20;;;9.70;99.90;;;;;;5000869;28;20189;-73
2023/03/08 03:21:54;;;;;;;3.67;1.70;;;9.70;99.90;;;;;;4984685;28;20694;-73
2023/03/08 03:24:20;;;;;;;6.83;2.00;;;9.60;99.90;;;;;;5019002;28;20203;-73
2023/03/08 03:26:50;;;;;;;5.90;2.27;;;9.60;99.90;;;;;;5018381;28;20208;-73
2023/03/08 03:29:16;;;;;;;5.30;2.53;;;9.60;99.90;;;;;;4982631;28;20235;-73
2023/03/08 03:31:44;;;;;;;5.17;2.30;;;9.60;99.90;;;;;;5019232;28;20242;-73
2023/03/08 03:34:10;;;;;;;5.47;2.23;;;9.50;99.90;;;;;;5016199;28;20192;-73
2023/03/08 03:36:37;;;;;;;4.67;1.80;;;9.40;99.90;;;;;;5018041;28;20192;-73
2023/03/08 03:39:03;;;;;;;5.10;2.07;;;9.40;99.90;;;;;;5003494;28;20185;-73
2023/03/08 03:41:29;;;;;;;4.87;1.87;;;9.40;99.90;;;;;;4985541;28;20583;-73
2023/03/08 03:43:57;;;;;;;2.93;1.90;;;9.50;99.90;;;;;;5003992;28;20658;-73
2023/03/08 03:46:24;;;;;;;6.30;2.03;;;9.50;99.90;;;;;;5001933;28;20196;-73
2023/03/08 03:48:50;;;;;;;4.37;1.83;;;9.60;99.90;;;;;;5002523;28;20543;-73
2023/03/08 03:51:20;;;;;;;5.30;1.93;;;9.60;99.90;;;;;;4984451;28;20286;-73
2023/03/08 03:53:47;;;;;;;6.30;2.47;;;9.50;99.90;;;;;;4996120;28;20184;-73
2023/03/08 03:56:20;;;;;;;5.30;2.30;;;9.50;99.90;;;;;;4993478;28;20251;-73
2023/03/08 03:58:48;;;;;;;3.03;1.87;;;9.50;99.90;;;;;;4993416;28;20754;-73
2023/03/08 04:01:19;;;;;;;5.57;2.07;;;9.50;99.90;;;;;;4994390;28;20200;-73
2023/03/08 04:03:47;;;;;;;6.37;1.90;;;9.50;99.90;;;;;;5012353;28;20198;-73
2023/03/08 04:06:18;;;;;;;5.50;2.37;;;9.50;99.90;;;;;;4993897;28;20539;-73
2023/03/08 04:08:45;;;;;;;5.70;2.30;;;9.50;99.90;;;;;;5008675;28;20697;-73
2023/03/08 04:11:20;;;;;;;5.30;2.23;;;9.50;99.90;;;;;;4995263;28;20176;-73
2023/03/08 04:13:46;;;;;;;4.73;2.30;;;9.40;99.90;;;;;;5011874;28;20257;-73
2023/03/08 04:16:23;;;;;;;2.90;1.83;;;9.40;99.90;;;;;;4996506;28;20192;-73
2023/03/08 04:18:55;;;;;;;8.27;2.20;;;9.40;99.90;;;;;;4993127;28;20192;-73
2023/03/08 04:21:22;;;;;;;5.23;2.10;;;9.40;99.90;;;;;;5011524;28;20230;-73
2023/03/08 04:23:49;;;;;;;4.23;1.80;;;9.30;99.90;;;;;;5008361;28;20222;-73
2023/03/08 04:26:16;;;;;;;9.07;2.33;;;9.30;99.90;;;;;;5013238;28;20188;-73
2023/03/08 04:28:43;;;;;;;3.23;1.90;;;9.20;99.90;;;;;;4990551;28;20680;-73
2023/03/08 04:31:23;;;;;;;6.60;2.00;;;9.10;99.90;;;;;;4997332;28;21015;-73
2023/03/08 04:33:52;;;;;;;4.87;1.80;;;9.10;99.90;;;;;;5013262;28;20194;-73
2023/03/08 04:36:19;;;;;;;4.43;2.10;;;9.00;99.90;;;;;;4993047;28;20223;-73
2023/03/08 04:38:46;;;;;;;4.23;1.97;;;9.00;99.90;;;;;;4993727;28;20306;-73
2023/03/08 04:41:13;;;;;;;5.27;2.00;;;9.00;99.90;;;;;;4995854;28;20672;-73
2023/03/08 04:43:50;;;;;;;5.33;2.13;;;9.00;99.90;;;;;;5011569;28;20196;-73
2023/03/08 04:46:20;;;;;;;3.83;2.10;;;9.00;99.90;;;;;;4996691;28;20250;-73
2023/03/08 04:48:47;;;;;;;2.90;2.00;;;9.00;99.90;;;;;;4991502;28;20568;-73
2023/03/08 04:51:15;;;;;;;5.87;2.27;;;9.00;99.90;;;;;;4992194;28;20197;-73
2023/03/08 04:53:44;;;;;;;4.70;2.10;;;9.00;99.90;;;;;;4992988;28;20275;-73
2023/03/08 04:56:12;;;;;;;6.90;2.10;;;9.00;99.90;;;;;;4995205;28;20192;-73
2023/03/08 04:58:39;;;;;;;4.43;2.27;;;9.00;99.90;;;;;;5012232;28;20266;-73
2023/03/08 05:01:19;;;;;;;5.30;2.23;;;9.00;99.90;;;;;;5011144;28;21850;-73
2023/03/08 05:03:48;;;;;;;6.63;2.47;;;9.10;99.90;;;;;;4992846;28;20192;-73
2023/03/08 05:06:15;;;;;;;7.17;2.00;;;9.10;99.90;;;;;;5012346;28;20188;-73
2023/03/08 05:08:41;;;;;;;5.07;2.00;;;9.20;99.90;;;;;;5008473;28;20334;-73
2023/03/08 05:11:09;;;;;;;4.57;2.17;;;9.20;99.90;;;;;;5012223;28;20192;-73
2023/03/08 05:13:38;;;;;;;10.63;2.33;;;9.20;99.90;;;;;;5017279;28;20188;-73
2023/03/08 05:16:07;;;;;;;5.77;2.30;;;9.20;99.90;;;;;;5010289;28;20192;-73
2023/03/08 05:18:34;;;;;;;3.73;2.03;;;9.20;99.90;;;;;;4974755;28;20258;-73
2023/03/08 05:21:05;;;;;;;4.43;2.10;;;9.20;99.90;;;;;;5008548;28;20219;-73
2023/03/08 05:23:32;;;;;;;4.90;2.30;;;9.20;99.90;;;;;;4995651;28;20271;-72
2023/03/08 05:26:00;;;;;;;6.93;2.40;;;9.20;99.90;;;;;;4980118;28;20184;-73
2023/03/08 05:28:30;;;;;;;6.47;2.27;;;9.30;99.90;;;;;;4992276;28;20196;-73
2023/03/08 05:31:12;;;;;;;10.97;2.50;;;9.40;99.90;;;;;;4995140;28;20691;-73
2023/03/08 05:33:39;;;;;;;8.00;2.10;;;9.50;99.90;;;;;;5011946;28;20192;-73
2023/03/08 05:36:07;;;;;;;5.63;2.13;;;9.60;99.90;;;;;;5012011;28;20187;-73
2023/03/08 05:38:34;;;;;;;3.97;1.87;;;9.70;99.90;;;;;;4973611;28;20237;-73
2023/03/08 05:41:06;;;;;;;4.13;2.30;;;9.80;99.90;;;;;;5011385;28;20204;-73
2023/03/08 05:43:33;;;;;;;8.47;2.20;;;9.90;99.90;;;;;;4991121;28;20191;-73
2023/03/08 05:46:03;;;;;;;7.97;2.63;;;9.90;99.90;;;;;;5012117;28;20200;-72
2023/03/08 05:48:32;;;;;;;2.80;2.13;;;10.00;99.90;;;;;;4991503;28;20215;-73
2023/03/08 05:50:58;;;;;;;4.23;2.10;;;10.00;99.90;;;;;;5013870;28;20226;-73
2023/03/08 05:53:24;;;;;;;4.30;2.23;;;10.00;99.90;;;;;;5011135;28;20184;-73
2023/03/08 05:55:54;;;;;;;4.93;2.10;;;10.10;99.90;;;;;;5009161;28;20714;-73
2023/03/08 05:58:20;;;;;;;4.27;2.17;;;10.10;99.90;;;;;;4988312;28;20559;-73
2023/03/08 06:00:46;;;;;;;6.03;2.17;;;10.20;99.90;;;;;;4993840;28;20213;-73
2023/03/08 06:03:13;;;;;;;4.03;2.00;;;10.20;99.90;;;;;;5009345;28;20242;-73
2023/03/08 06:05:39;;;;;;;4.80;2.30;;;10.20;99.90;;;;;;5007816;28;20192;-73
2023/03/08 06:08:05;;;;;;;3.43;2.40;;;10.30;99.90;;;;;;4991280;28;20204;-73
2023/03/08 06:10:32;;;;;;;10.20;2.97;;;10.40;99.90;;;;;;5008759;28;20188;-73
2023/03/08 06:12:58;;;;;;;10.30;2.83;;;10.40;99.90;;;;;;5009920;28;20754;-73
2023/03/08 06:15:24;;;;;;;12.83;2.90;;;10.50;99.90;;;;;;4992232;28;20220;-73
2023/03/08 06:17:53;;;;;;;6.40;2.50;;;10.50;99.90;;;;;;4993156;28;20192;-73
2023/03/08 06:20:20;;;;;;;6.57;3.03;;;10.60;99.90;;;;;;5012196;28;20188;-73
2023/03/08 06:22:46;;;;;;;8.30;2.70;;;10.70;99.90;;;;;;4995635;28;20261;-73
2023/03/08 06:25:12;;;;;;;6.57;2.53;;;10.70;99.90;;;;;;5012799;28;21827;-73
2023/03/08 06:27:38;;;;;;;7.70;2.80;;;10.80;99.90;;;;;;4989837;28;20621;-73
2023/03/08 06:30:05;;;;;;;5.80;2.70;;;10.80;99.90;;;;;;5010585;28;20200;-73
2023/03/08 06:32:32;;;;;;;7.17;2.20;;;10.90;99.90;;;;;;5003033;28;20188;-73
2023/03/08 06:34:58;;;;;;;4.90;2.17;;;11.00;99.90;;;;;;4990812;28;20214;-73
2023/03/08 06:37:24;;;;;;;7.97;2.30;;;11.00;99.90;;;;;;4993296;28;20192;-73
2023/03/08 06:39:50;;;;;;;7.60;2.43;;;11.10;99.90;;;;;;5008850;28;20717;-73
2023/03/08 06:42:16;;;;;;;6.13;2.40;;;11.20;99.90;;;;;;4992900;28;20189;-73
2023/03/08 06:44:43;;;;;;;11.50;2.50;;;11.20;99.90;;;;;;5008815;28;20207;-73
2023/03/08 06:47:09;;;;;;;7.63;2.60;;;11.30;99.90;;;;;;5007579;28;20679;-73
2023/03/08 06:49:35;;;;;;;8.07;2.53;;;11.30;99.90;;;;;;4974639;28;20185;-73
2023/03/08 06:52:01;;;;;;;5.10;2.13;;;11.40;99.90;;;;;;4992940;28;20192;-73
2023/03/08 06:54:28;;;;;;;6.47;2.37;;;11.50;99.90;;;;;;5010803;28;20315;-73
2023/03/08 06:56:54;;;;;;;6.97;2.33;;;11.50;99.90;;;;;;4972695;28;20279;-73
2023/03/08 06:59:20;;;;;;;8.70;2.27;;;11.50;99.90;;;;;;4992739;28;20867;-73
2023/03/08 07:01:46;;;;;;;6.10;2.47;;;11.60;99.90;;;;;;5006473;28;20699;-73
2023/03/08 07:04:12;;;;;;;4.43;2.23;;;11.60;99.90;;;;;;4995460;28;20184;-73
2023/03/08 07:06:41;;;;;;;8.23;2.37;;;11.70;99.90;;;;;;5007732;28;21154;-73
2023/03/08 07:09:07;;;;;;;7.37;2.57;;;11.80;99.90;;;;;;5014338;28;20255;-73
2023/03/08 07:11:33;;;;;;;4.20;2.00;;;11.70;99.90;;;;;;5014734;28;20199;-73
2023/03/08 07:14:00;;;;;;;11.73;2.50;;;11.70;99.90;;;;;;5011786;28;20900;-73
2023/03/08 07:16:27;;;;;;;8.00;2.30;;;11.70;99.90;;;;;;4995441;28;20191;-73
2023/03/08 07:18:53;;;;;;;8.80;2.10;;;11.50;99.90;;;;;;5011770;28;21471;-73
2023/03/08 07:21:19;;;;;;;4.00;1.77;;;11.50;99.90;;;;;;4993645;28;20196;-72
2023/03/08 07:23:45;;;;;;;7.83;2.73;;;11.40;99.90;;;;;;4998107;28;20222;-72
2023/03/08 07:26:12;;;;;;;4.77;2.17;;;11.30;99.90;;;;;;5009435;28;20228;-73
2023/03/08 07:28:38;;;;;;;7.30;2.20;;;11.30;99.90;;;;;;4978524;28;22033;-73
2023/03/08 07:31:04;;;;;;;9.40;2.57;;;11.30;99.90;;;;;;4990531;28;20777;-73
2023/03/08 07:33:31;;;;;;;7.30;1.93;;;11.50;99.90;;;;;;5010549;28;20267;-73
2023/03/08 07:36:01;;;;;;;6.17;2.40;;;11.50;99.90;;;;;;5013518;28;20184;-73
2023/03/08 07:38:27;;;;;;;6.57;2.20;;;11.50;99.90;;;;;;5017647;28;20192;-73
2023/03/08 07:40:55;;;;;;;6.10;2.17;;;11.50;99.90;;;;;;5015053;28;20196;-73
2023/03/08 07:43:22;;;;;;;5.03;1.83;;;11.80;99.90;;;;;;4996337;28;20203;-73
2023/03/08 07:45:49;;;;;;;6.13;2.00;;;11.80;99.90;;;;;;5018460;28;20194;-73
2023/03/08 07:48:15;;;;;;;5.53;1.80;;;11.80;99.90;;;;;;5017735;28;20700;-73
2023/03/08 07:50:41;;;;;;;6.50;2.77;;;12.10;99.90;;;;;;5015493;28;20202;-73
2023/03/08 07:53:08;;;;;;;2.77;1.63;;;12.20;99.90;;;;;;5008542;28;20195;-73
2023/03/08 07:55:36;;;;;;;6.27;1.77;;;12.10;99.90;;;;;;5016261;28;20418;-73
2023/03/08 07:58:02;;;;;;;8.73;1.63;;;12.10;99.90;;;;;;4992931;28;20609;-73
2023/03/08 08:00:28;;;;;;;8.73;1.73;;;12.30;99.90;;;;;;4980139;28;20224;-73
2023/03/08 08:02:56;;;;;;;4.27;1.80;;;12.20;99.90;;;;;;4991872;28;20642;-73
2023/03/08 08:05:25;;;;;;;5.27;1.63;;;12.00;99.90;;;;;;5009581;28;20192;-73
2023/03/08 08:07:51;;;;;;;2.63;1.20;;;12.10;99.90;;;;;;4990722;28;20909;-73
2023/03/08 08:10:17;;;;;;;4.90;1.23;;;12.30;99.90;;;;;;4993590;28;20706;-73
2023/03/08 08:12:44;;;;;;;3.70;1.30;;;12.30;99.90;;;;;;5011038;28;20188;-73
2023/03/08 08:15:11;;;;;;;6.07;1.43;;;12.60;99.90;;;;;;5010479;28;20188;-73
2023/03/08 08:17:37;;;;;;;4.63;1.37;;;12.80;99.90;;;;;;5009127;28;21860;-73
2023/03/08 08:20:06;;;;;;;3.40;1.40;;;12.80;99.90;;;;;;5014048;28;21610;-73
2023/03/08 08:22:35;;;;;;;2.33;1.27;;;12.90;99.90;;;;;;5017368;28;20546;-73
2023/03/08 08:25:06;;;;;;;3.97;1.77;;;13.00;99.90;;;;;;4999963;28;20203;-73
2023/03/08 08:27:34;;;;;;;10.73;1.40;;;13.10;99.90;;;;;;5013983;28;20216;-73
2023/03/08 08:30:01;;;;;;;3.13;1.23;;;12.50;99.90;;;;;;5011797;28;20559;-73
2023/03/08 08:32:27;;;;;;;3.23;1.53;;;12.80;99.90;;;;;;5017304;28;20180;-73
2023/03/08 08:34:58;;;;;;;3.93;1.87;;;13.20;99.90;;;;;;5021899;28;20192;-73
2023/03/08 08:37:25;;;;;;;4.47;1.60;;;13.30;99.90;;;;;;4977589;28;20277;-73
2023/03/08 08:39:51;;;;;;;7.83;1.63;;;12.90;99.90;;;;;;5001442;28;20192;-73
2023/03/08 08:42:17;;;;;;;6.30;1.93;;;12.70;99.90;;;;;;5020000;28;20517;-73
2023/03/08 08:44:44;;;;;;;5.23;1.50;;;12.80;99.90;;;;;;5018596;28;20603;-73
2023/03/08 08:47:10;;;;;;;6.13;1.97;;;13.10;99.90;;;;;;4982804;28;20235;-73
2023/03/08 08:49:36;;;;;;;3.37;1.40;;;13.50;99.90;;;;;;5014134;28;20604;-73
2023/03/08 08:52:03;;;;;;;4.77;1.50;;;13.50;99.90;;;;;;5016929;28;20258;-73
2023/03/08 08:54:32;;;;;;;4.80;1.80;;;13.60;99.90;;;;;;5000250;28;20223;-73
2023/03/08 08:56:59;;;;;;;7.90;1.87;;;14.00;99.90;;;;;;5017334;28;20263;-73
2023/03/08 08:59:26;;;;;;;8.17;1.90;;;14.10;99.90;;;;;;5014199;28;20200;-73
2023/03/08 09:01:52;;;;;;;6.17;1.73;;;14.20;99.90;;;;;;5001019;28;20311;-73
2023/03/08 09:04:19;;;;;;;6.37;1.90;;;14.40;99.90;;;;;;4994067;28;20196;-73
2023/03/08 09:06:46;;;;;;;6.10;1.90;;;14.40;99.90;;;;;;5017388;28;20222;-73
2023/03/08 09:09:12;;;;;;;7.80;1.67;;;14.30;99.90;;;;;;4981090;28;20211;-73
2023/03/08 09:11:38;;;;;;;6.03;1.80;;;14.50;99.90;;;;;;5000164;28;20275;-73
2023/03/08 09:14:05;;;;;;;6.53;1.80;;;14.60;99.90;;;;;;4999862;28;20192;-73
2023/03/08 09:16:33;;;;;;;2.83;1.40;;;14.60;99.90;;;;;;5016351;28;20197;-73
2023/03/08 09:19:03;;;;;;;4.97;1.67;;;14.60;99.90;;;;;;5000788;28;20230;-73
2023/03/08 09:21:31;;;;;;;4.50;2.10;;;14.50;99.90;;;;;;4996907;28;20208;-73
2023/03/08 09:24:04;;;;;;;5.83;2.17;;;14.60;99.90;;;;;;4997441;28;20242;-73
2023/03/08 09:26:32;;;;;;;4.23;1.60;;;14.60;99.90;;;;;;5017184;28;20307;-73
2023/03/08 09:29:03;;;;;;;5.87;1.63;;;14.50;99.90;;;;;;5001330;28;20218;-73
2023/03/08 09:31:31;;;;;;;6.77;1.73;;;14.70;99.90;;;;;;5015734;28;20208;-73
2023/03/08 09:33:58;;;;;;;5.60;1.67;;;14.80;99.90;;;;;;5000535;28;20184;-73
2023/03/08 09:36:27;;;;;;;8.87;1.77;;;15.00;99.90;;;;;;4995611;28;20262;-73
2023/03/08 09:38:55;;;;;;;6.37;1.50;;;15.10;99.90;;;;;;5012884;28;20322;-73
2023/03/08 09:41:43;;;;;;;5.83;1.80;;;15.10;99.90;;;;;;4998268;28;20204;-73
2023/03/08 09:44:42;;;;;;;6.23;2.33;;;15.20;99.90;;;;;;4983220;28;20584;-73
2023/03/08 09:47:38;;;;;;;4.60;2.00;;;15.20;99.90;;;;;;4998589;28;20578;-73
2023/03/08 09:50:11;;;;;;;5.53;1.67;;;14.80;99.90;;;;;;5007056;28;20200;-73
2023/03/08 09:52:42;;;;;;;5.10;1.67;;;15.20;99.90;;;;;;5019741;28;20196;-73
2023/03/08 09:55:48;;;;;;;3.60;1.30;;;15.30;99.90;;;;;;5020386;28;20536;-73
2023/03/08 09:58:56;;;;;;;4.80;1.63;;;15.30;99.90;;;;;;4954151;28;20198;-73
2023/03/08 10:01:36;;;;;;;5.27;1.60;;;15.50;99.90;;;;;;5013541;28;20204;-73
2023/03/08 10:04:45;;;;;;;3.83;1.70;;;15.70;99.90;;;;;;4997588;28;20199;-73
2023/03/08 10:07:31;;;;;;;6.30;2.10;;;15.50;99.90;;;;;;4999010;28;20241;-73
2023/03/08 10:10:34;;;;;;;5.07;1.73;;;15.80;99.90;;;;;;5016518;28;20234;-73
2023/03/08 10:13:39;;;;;;;5.20;2.00;;;16.00;99.90;;;;;;5012792;28;20192;-74
2023/03/08 10:16:21;;;;;;;8.47;2.20;;;16.10;99.90;;;;;;5017326;28;20196;-74
2023/03/08 10:19:19;;;;;;;4.77;1.63;;;16.20;99.90;;;;;;5014388;28;20295;-74
2023/03/08 10:21:47;;;;;;;6.87;1.80;;;16.20;99.90;;;;;;4992868;28;20284;-74
2023/03/08 10:24:36;;;;;;;5.10;1.30;;;16.10;99.90;;;;;;5015652;28;20547;-74
2023/03/08 10:27:17;;;;;;;5.57;1.50;;;16.20;99.90;;;;;;5017571;28;20207;-74
2023/03/08 10:29:57;;;;;;;6.53;1.90;;;16.10;99.90;;;;;;5021182;28;20257;-74
2023/03/08 10:32:25;;;;;;;4.50;1.50;;;16.20;99.90;;;;;;5019153;28;20660;-74
2023/03/08 10:34:59;;;;;;;11.10;2.00;;;16.20;99.90;;;;;;5019557;28;20188;-74
2023/03/08 10:37:33;;;;;;;4.67;1.60;;;16.20;99.90;;;;;;5017676;28;20191;-74
2023/03/08 10:40:05;;;;;;;7.87;1.90;;;16.30;99.90;;;;;;5018073;28;20180;-74
2023/03/08 10:42:34;;;;;;;5.87;1.67;;;16.30;99.90;;;;;;5000089;28;20211;-74
2023/03/08 10:45:24;;;;;;;5.07;1.80;;;16.50;99.90;;;;;;5023901;28;20250;-74
2023/03/08 10:48:00;;;;;;;6.23;1.60;;;16.80;99.90;;;;;;5003496;28;20220;-74
2023/03/08 10:50:35;;;;;;;12.00;1.97;;;16.70;99.90;;;;;;5005155;28;20661;-74
2023/03/08 10:53:18;;;;;;;5.07;1.57;;;16.70;99.90;;;;;;5023230;28;20188;-74
2023/03/08 10:55:51;;;;;;;11.23;1.80;;;16.60;99.90;;;;;;5023399;28;20192;-74
2023/03/08 10:58:38;;;;;;;6.20;1.70;;;16.30;99.90;;;;;;5015370;28;20702;-74
2023/03/08 11:01:24;;;;;;;6.67;1.80;;;16.30;99.90;;;;;;5020799;28;20207;-74
2023/03/08 11:04:04;;;;;;;4.90;1.30;;;16.20;99.90;;;;;;5005964;28;20188;-74
2023/03/08 11:06:35;;;;;;;5.47;1.67;;;16.10;99.90;;;;;;4999721;28;20192;-74
2023/03/08 11:09:17;;;;;;;5.33;1.57;;;16.00;99.90;;;;;;5020769;28;20222;-74
2023/03/08 11:11:44;;;;;;;9.87;2.07;;;15.70;99.90;;;;;;5017539;28;20191;-74
2023/03/08 11:14:11;;;;;;;7.70;2.00;;;16.20;99.90;;;;;;5005082;28;20184;-74
2023/03/08 11:16:54;;;;;;;5.23;1.83;;;16.60;99.90;;;;;;5003973;28;20195;-74
2023/03/08 11:19:38;;;;;;;6.10;1.87;;;16.80;99.90;;;;;;5019929;28;20180;-74
2023/03/08 11:22:10;;;;;;;6.60;1.93;;;16.80;99.90;;;;;;5024671;28;20290;-74
2023/03/08 11:25:08;;;;;;;4.20;1.70;;;16.60;99.90;;;;;;5022297;28;20196;-74
2023/03/08 11:28:24;;;;;;;5.97;1.60;;;16.60;99.90;;;;;;5020169;28;20747;-74
2023/03/08 11:31:20;;;;;;;5.37;1.73;;;16.50;99.90;;;;;;4935125;28;20187;-74
2023/03/08 11:34:32;;;;;;;7.07;1.57;;;16.20;99.90;;;;;;4941685;28;20914;-74
2023/03/08 11:37:53;;;;;;;11.43;2.37;;;15.90;99.90;;;;;;5023052;28;20258;-74
2023/03/08 11:40:53;;;;;;;6.00;1.83;;;15.70;99.90;;;;;;4989372;28;20200;-74
2023/03/08 11:43:32;;;;;;;6.90;1.90;;;15.80;99.90;;;;;;5003724;28;20196;-74
2023/03/08 11:46:37;;;;;;;10.10;2.23;;;15.70;99.90;;;;;;5021575;28;21114;-74
2023/03/08 11:49:42;;;;;;;4.43;1.53;;;15.90;99.90;;;;;;4983699;28;20682;-74
2023/03/08 11:52:38;;;;;;;8.53;1.60;;;15.90;99.90;;;;;;4993586;28;20828;-74
2023/03/08 11:55:38;;;;;;;4.93;1.70;;;16.30;99.90;;;;;;4997501;28;20222;-74
2023/03/08 11:58:29;;;;;;;7.73;2.10;;;16.50;99.90;;;;;;4997525;28;21952;-74
2023/03/08 12:01:08;;;;;;;4.33;1.60;;;16.50;99.90;;;;;;5019252;28;20850;-74
2023/03/08 12:03:45;;;;;;;5.63;1.73;;;16.50;99.90;;;;;;5017085;28;20289;-74
2023/03/08 12:06:26;;;;;;;8.63;2.10;;;16.70;99.90;;;;;;5021421;28;20308;-74
2023/03/08 12:09:06;;;;;;;3.43;1.60;;;16.70;99.90;;;;;;5018914;28;20220;-74
2023/03/08 12:11:42;;;;;;;5.37;1.70;;;16.70;99.90;;;;;;5017439;28;20180;-74
2023/03/08 12:14:45;;;;;;;4.07;1.60;;;16.50;99.90;;;;;;5003447;28;20925;-74
2023/03/08 12:17:24;;;;;;;8.13;1.87;;;16.20;99.90;;;;;;5017257;28;20184;-74
2023/03/08 12:19:52;;;;;;;4.93;1.93;;;15.90;99.90;;;;;;5003750;28;20188;-74
2023/03/08 12:22:41;;;;;;;5.30;1.80;;;15.70;99.90;;;;;;5022016;28;20250;-74
2023/03/08 12:25:35;;;;;;;7.43;1.73;;;15.70;99.90;;;;;;5023214;28;20198;-74
2023/03/08 12:28:19;;;;;;;5.20;1.83;;;16.00;99.90;;;;;;5019439;28;20258;-74
2023/03/08 12:31:07;;;;;;;9.27;2.00;;;15.80;99.90;;;;;;5021117;28;20278;-74
2023/03/08 12:33:35;;;;;;;7.63;1.73;;;15.70;99.90;;;;;;5017617;28;20195;-74
2023/03/08 12:36:05;;;;;;;6.33;1.73;;;15.60;99.90;;;;;;5015211;28;20212;-74
2023/03/08 12:38:35;;;;;;;6.10;1.80;;;15.40;99.90;;;;;;5020999;28;20239;-73
2023/03/08 12:41:05;;;;;;;8.77;1.93;;;15.40;99.90;;;;;;5005165;28;20204;-73
2023/03/08 12:43:38;;;;;;;8.37;1.67;;;15.20;99.90;;;;;;5002711;28;20189;-73
2023/03/08 12:46:10;;;;;;;6.57;1.83;;;15.30;99.90;;;;;;4984156;28;20184;-73
2023/03/08 12:48:43;;;;;;;7.90;1.67;;;15.60;99.90;;;;;;5001912;28;20216;-73
2023/03/08 12:51:13;;;;;;;7.83;1.93;;;15.70;99.90;;;;;;4997377;28;20187;-73
2023/03/08 12:53:51;;;;;;;9.37;2.30;;;15.20;99.90;;;;;;5016080;28;20710;-73
2023/03/08 12:56:36;;;;;;;5.10;1.70;;;15.50;99.90;;;;;;4999074;28;20610;-73
2023/03/08 12:59:22;;;;;;;4.97;1.77;;;15.60;99.90;;;;;;5016095;28;20340;-73
2023/03/08 13:02:01;;;;;;;6.23;1.90;;;15.70;99.90;;;;;;5015628;28;20607;-73
2023/03/08 13:04:36;;;;;;;6.57;2.17;;;15.40;99.90;;;;;;4999616;28;20188;-75
2023/03/08 13:07:38;;;;;;;8.77;2.43;;;15.30;99.90;;;;;;5016094;28;20191;-74
2023/03/08 13:10:18;;;;;;;5.90;1.63;;;15.20;99.90;;;;;;4968555;28;20204;-75
2023/03/08 13:12:47;;;;;;;5.97;1.73;;;15.40;99.90;;;;;;5017691;28;20184;-75
2023/03/08 13:15:24;;;;;;;5.83;1.97;;;15.70;99.90;;;;;;5017036;28;20243;-74